Portada
METAR-TAF:

METAR-TAF

Aeroports :

Mandalay, Myanmar

latitud: 21-59N, longitud: 096-06E, altitud: 74 m

Observació

L'informe es va fer fa 1 hora i 27 minuts, a les 16:30 UTC
Vent 5 kt del Sud/Sud-Oest
Temperatura 25°C
Humitat 54%
Pressió 1007 hPa
Visibilitat: 5000 m
Escasses núvols a una alçada de 2000 ft
calitja

METAR: VYMD 231630Z 20005KT 5000 HZ FEW020 25/15 Q1007

Hora: 00:27 (17:57 UTC)

Pronòstic

L'informe es va fer fa 57 minuts, a les 17:00 UTC
Pronòstic vàlid del 23 a les 18 UTC al 24 a les 18 UTC
Vent 6 kt del Sud/Sud-Oest
Visibilitat: 6000 m
Núvols disperses a una alçada de 2000 ft
Temporalment
l' 23 a les 18 UTC al 23 a les 24 UTC
Vent 5 kt del Sud
Visibilitat: 5000 m
calitja

TAF: VYMD 231700Z 2318/2418 21006KT 6000 SCT020 TEMPO 2318/2324 19005KT 5000 HZ

Observacions i pronòstics meteorològics de més de 4000 aeroports (METAR i TAF).

Les estacions disponibles són els punts grocs i vermells al mapa.

Posi el ratolí al punt desitjat per veure el nom de l'estació.

Feu clic per veure les observacions i els pronòstics meteorològics.

Per canviar el mapa: feu clic els botons verds amb una creu de color negre per apropar; al botó verd amb un guió per allunyar la imatge; o en les fletxes verdes per a mapes adjacents.


METAR-TAF: